Terminal Aerodrome Forecast
Issued by NWS

Home | Current Version | Previous Version | Text Only | Print | Product List | Glossary On
Versions: 1 2 3 4 5 6 7 8 9 10 11 12 13 14 15 16 17 18
103
FTUS43 KAPX 301507 AAA
TAFPLN
TAF AMD
KPLN 301507Z 3015/0112 08019G28KT P6SM SCT019 SCT035 OVC060
      TEMPO 3015/3018 BKN019
     FM302100 07012G22KT 2SM SHRA BR OVC015
     FM010100 08010G21KT 3SM SHRA BR OVC015
     FM010700 08009KT 4SM SHRA BR OVC005=

USA.gov is the U.S. government's official web portal to all federal, state and local government web resources and services.